Time;durP1;ratioP1;P1;durP2;ratioP2;P2;SDS_P1;SDS_P2;PMS_P1;PMS_P2;Temp;Humidity;BMP_temperature;BMP_pressure;BME280_temperature;BME280_humidity;BME280_pressure;Samples;Min_cycle;Max_cycle;Signal;HPM_P1;HPM_P2
2022/10/03 00:01:48;;;;;;;3.60;1.60;;;;;;;;;;106563;1298;22587;-34
2022/10/03 00:04:23;;;;;;;3.30;1.50;;;;;;;;;;106515;1306;22627;-34
2022/10/03 00:06:56;;;;;;;3.70;1.40;;;;;;;;;;106528;1304;24356;-34
2022/10/03 00:09:25;;;;;;;;;;;;;;;;;;106562;1302;22547;-34
2022/10/03 00:11:58;;;;;;;3.40;1.50;;;;;;;;;;106584;1302;22538;-34
2022/10/03 00:14:34;;;;;;;3.60;1.60;;;;;;;;;;106457;1304;22599;-34
2022/10/03 00:17:06;;;;;;;3.90;1.70;;;;;;;;;;106537;1305;22542;-34
2022/10/03 00:19:38;;;;;;;3.50;1.50;;;;;;;;;;106534;1306;22560;-33
2022/10/03 00:22:13;;;;;;;3.40;1.60;;;;;;;;;;106576;1298;22556;-33
2022/10/03 00:24:55;;;;;;;4.00;1.50;;;;;;;;;;106476;1303;26488;-33
2022/10/03 00:27:30;;;;;;;3.30;1.30;;;;;;;;;;106553;1298;22542;-34
2022/10/03 00:30:11;;;;;;;3.50;1.40;;;;;;;;;;106539;1298;22556;-34
2022/10/03 00:32:54;;;;;;;3.80;1.60;;;;;;;;;;106440;1306;22579;-35
2022/10/03 00:35:30;;;;;;;3.10;1.20;;;;;;;;;;106503;1306;22535;-34
2022/10/03 00:38:05;;;;;;;4.50;1.50;;;;;;;;;;106537;1298;22560;-34
2022/10/03 00:40:47;;;;;;;3.40;1.40;;;;;;;;;;106561;1298;22564;-35
2022/10/03 00:43:28;;;;;;;3.40;1.50;;;;;;;;;;106554;1298;22671;-34
2022/10/03 00:46:10;;;;;;;3.40;1.40;;;;;;;;;;106506;1306;22565;-34
2022/10/03 00:48:50;;;;;;;4.20;1.40;;;;;;;;;;106508;1298;24210;-34
2022/10/03 00:51:24;;;;;;;3.60;1.30;;;;;;;;;;106561;1298;22546;-34
2022/10/03 00:54:03;;;;;;;3.00;1.30;;;;;;;;;;106535;1306;22985;-34
2022/10/03 00:56:41;;;;;;;3.30;1.30;;;;;;;;;;106504;1302;22689;-34
2022/10/03 00:59:18;;;;;;;3.60;1.30;;;;;;;;;;106509;1306;22545;-34
2022/10/03 01:01:47;;;;;;;3.10;1.40;;;;;;;;;;106536;1298;26141;-35
2022/10/03 01:04:29;;;;;;;3.50;1.40;;;;;;;;;;106564;1298;22569;-35
2022/10/03 01:07:03;;;;;;;3.20;1.30;;;;;;;;;;106466;1306;22583;-35
2022/10/03 01:09:38;;;;;;;3.90;1.30;;;;;;;;;;106567;1306;22574;-34
2022/10/03 01:12:15;;;;;;;3.60;1.50;;;;;;;;;;106519;1306;22653;-34
2022/10/03 01:14:56;;;;;;;2.60;1.30;;;;;;;;;;106540;1306;22587;-34
2022/10/03 01:17:31;;;;;;;3.10;1.40;;;;;;;;;;106483;1306;22548;-35
2022/10/03 01:20:06;;;;;;;4.50;1.70;;;;;;;;;;106551;1303;22551;-35
2022/10/03 01:22:48;;;;;;;3.60;1.30;;;;;;;;;;106540;1301;22644;-35
2022/10/03 01:25:19;;;;;;;3.50;1.40;;;;;;;;;;106528;1298;22531;-35
2022/10/03 01:30:57;;;;;;;3.30;1.60;;;;;;;;;;105841;1304;25195;-34
2022/10/03 01:33:31;;;;;;;3.00;1.50;;;;;;;;;;105827;1304;22716;-35
2022/10/03 01:36:03;;;;;;;4.10;1.30;;;;;;;;;;105951;1301;22553;-35
2022/10/03 01:38:36;;;;;;;3.60;1.50;;;;;;;;;;106519;1303;22562;-35
2022/10/03 01:41:07;;;;;;;3.10;1.50;;;;;;;;;;106532;1302;26360;-34
2022/10/03 01:43:42;;;;;;;3.50;1.50;;;;;;;;;;106384;1306;22583;-34
2022/10/03 01:46:16;;;;;;;4.20;1.40;;;;;;;;;;106417;1302;22598;-34
2022/10/03 01:48:50;;;;;;;3.50;1.50;;;;;;;;;;106520;1302;22560;-34
2022/10/03 01:51:23;;;;;;;3.70;1.50;;;;;;;;;;106548;1298;24280;-34
2022/10/03 01:54:00;;;;;;;3.30;1.60;;;;;;;;;;106490;1298;22552;-34
2022/10/03 01:56:33;;;;;;;3.70;1.70;;;;;;;;;;106450;1298;22891;-35
2022/10/03 01:59:01;;;;;;;;;;;;;;;;;;106538;1298;24217;-35
2022/10/03 02:01:34;;;;;;;3.70;1.50;;;;;;;;;;106500;1306;22636;-35
2022/10/03 02:04:11;;;;;;;4.00;1.90;;;;;;;;;;106507;1298;22545;-34
2022/10/03 02:06:46;;;;;;;3.30;1.40;;;;;;;;;;106445;1303;22584;-34
2022/10/03 02:09:23;;;;;;;3.20;1.50;;;;;;;;;;106531;1304;26569;-34
2022/10/03 02:12:01;;;;;;;3.50;1.70;;;;;;;;;;106484;1305;25420;-34
2022/10/03 02:14:34;;;;;;;3.50;1.60;;;;;;;;;;106475;1301;22668;-34
2022/10/03 02:17:06;;;;;;;3.90;1.60;;;;;;;;;;106484;1302;22586;-34
2022/10/03 02:19:41;;;;;;;3.40;1.40;;;;;;;;;;106528;1299;22637;-34
2022/10/03 02:22:15;;;;;;;3.20;1.50;;;;;;;;;;106514;1298;22555;-34
2022/10/03 02:24:48;;;;;;;3.10;1.80;;;;;;;;;;106555;1303;22554;-34
2022/10/03 02:27:30;;;;;;;3.50;1.50;;;;;;;;;;106523;1305;22599;-34
2022/10/03 02:30:05;;;;;;;3.20;1.60;;;;;;;;;;106519;1303;22568;-34
2022/10/03 02:33:03;;;;;;;3.30;1.70;;;;;;;;;;106512;1298;24421;-34
2022/10/03 02:35:51;;;;;;;3.60;1.60;;;;;;;;;;106528;1298;22561;-34
2022/10/03 02:38:26;;;;;;;4.30;1.80;;;;;;;;;;106510;1302;22670;-34
2022/10/03 02:41:17;;;;;;;4.10;1.70;;;;;;;;;;106508;1302;24526;-34
2022/10/03 02:44:09;;;;;;;4.30;1.80;;;;;;;;;;106543;1303;22679;-35
2022/10/03 02:47:00;;;;;;;3.60;1.60;;;;;;;;;;106525;1298;22565;-35
2022/10/03 02:49:45;;;;;;;3.80;1.90;;;;;;;;;;106333;1306;33945;-35
2022/10/03 02:52:28;;;;;;;3.90;1.70;;;;;;;;;;106544;1302;22575;-35
2022/10/03 02:55:16;;;;;;;3.50;1.80;;;;;;;;;;106535;1298;24311;-34
2022/10/03 02:58:04;;;;;;;4.10;1.80;;;;;;;;;;106462;1303;25244;-34
2022/10/03 03:00:50;;;;;;;3.40;1.60;;;;;;;;;;106510;1306;22571;-34
2022/10/03 03:03:28;;;;;;;3.20;1.60;;;;;;;;;;106552;1305;22658;-34
2022/10/03 03:06:08;;;;;;;3.70;1.70;;;;;;;;;;106515;1301;22558;-35
2022/10/03 03:08:46;;;;;;;3.50;1.60;;;;;;;;;;106482;1301;22665;-34
2022/10/03 03:11:22;;;;;;;3.70;1.80;;;;;;;;;;106544;1305;23436;-34
2022/10/03 03:13:59;;;;;;;3.90;2.20;;;;;;;;;;106532;1306;22566;-34
2022/10/03 03:16:46;;;;;;;4.00;1.80;;;;;;;;;;106539;1299;22552;-35
2022/10/03 03:19:21;;;;;;;3.80;1.70;;;;;;;;;;106502;1302;25225;-35
2022/10/03 03:21:53;;;;;;;3.50;1.80;;;;;;;;;;106537;1306;22559;-35
2022/10/03 03:24:32;;;;;;;3.70;1.90;;;;;;;;;;106548;1298;25349;-35
2022/10/03 03:27:05;;;;;;;3.50;1.80;;;;;;;;;;106534;1303;24055;-35
2022/10/03 03:29:39;;;;;;;3.30;1.90;;;;;;;;;;106483;1302;22679;-35
2022/10/03 03:32:13;;;;;;;4.00;1.90;;;;;;;;;;106515;1306;22596;-35
2022/10/03 03:34:44;;;;;;;3.40;1.90;;;;;;;;;;106515;1302;25425;-35
2022/10/03 03:37:19;;;;;;;3.90;2.00;;;;;;;;;;106547;1298;22561;-35
2022/10/03 03:39:57;;;;;;;4.30;1.80;;;;;;;;;;106500;1299;22608;-35
2022/10/03 03:42:34;;;;;;;3.50;1.90;;;;;;;;;;106565;1303;25333;-35
2022/10/03 03:45:14;;;;;;;3.90;1.90;;;;;;;;;;106539;1305;22559;-34
2022/10/03 03:47:55;;;;;;;3.20;1.90;;;;;;;;;;106530;1302;22668;-34
2022/10/03 03:50:31;;;;;;;3.80;2.00;;;;;;;;;;106488;1302;22544;-34
2022/10/03 03:53:06;;;;;;;3.80;2.10;;;;;;;;;;106542;1300;22561;-34
2022/10/03 03:55:39;;;;;;;3.60;1.70;;;;;;;;;;106559;1298;24271;-34
2022/10/03 03:58:16;;;;;;;4.10;1.90;;;;;;;;;;106543;1306;22565;-35
2022/10/03 04:01:04;;;;;;;3.20;1.80;;;;;;;;;;106499;1306;22568;-34
2022/10/03 04:03:39;;;;;;;3.90;1.90;;;;;;;;;;106552;1304;22588;-35
2022/10/03 04:06:14;;;;;;;3.90;1.90;;;;;;;;;;106554;1302;22573;-34
2022/10/03 04:08:59;;;;;;;3.20;1.70;;;;;;;;;;106539;1303;23579;-34
2022/10/03 04:11:33;;;;;;;4.00;2.00;;;;;;;;;;106544;1306;30303;-34
2022/10/03 04:14:11;;;;;;;4.60;2.10;;;;;;;;;;106516;1306;22564;-34
2022/10/03 04:19:42;;;;;;;4.10;1.90;;;;;;;;;;106517;1306;22572;-34
2022/10/03 04:22:19;;;;;;;3.40;1.70;;;;;;;;;;106547;1303;22552;-34
2022/10/03 04:25:16;;;;;;;4.50;1.90;;;;;;;;;;106554;1306;22555;-34
2022/10/03 04:28:03;;;;;;;4.20;1.90;;;;;;;;;;106535;1306;23480;-36
2022/10/03 04:30:34;;;;;;;5.30;2.00;;;;;;;;;;106703;1300;22502;-34
2022/10/03 04:33:17;;;;;;;4.10;1.90;;;;;;;;;;106790;1299;22581;-34
2022/10/03 04:35:56;;;;;;;4.40;2.20;;;;;;;;;;106823;1303;22662;-35
2022/10/03 04:38:36;;;;;;;4.80;1.90;;;;;;;;;;106805;1299;22676;-33
2022/10/03 04:41:11;;;;;;;3.40;1.60;;;;;;;;;;106768;1301;22568;-34
2022/10/03 04:43:42;;;;;;;3.80;1.60;;;;;;;;;;106829;1302;22533;-35
2022/10/03 04:46:18;;;;;;;3.80;2.10;;;;;;;;;;106839;1303;22562;-35
2022/10/03 04:48:51;;;;;;;7.80;2.00;;;;;;;;;;106732;1300;22646;-35
2022/10/03 04:51:18;;;;;;;;;;;;;;;;;;106747;1303;22521;-35
2022/10/03 04:53:55;;;;;;;3.90;1.80;;;;;;;;;;106838;1303;22547;-34
2022/10/03 04:56:38;;;;;;;3.60;1.80;;;;;;;;;;106723;1303;22555;-34
2022/10/03 04:59:06;;;;;;;;;;;;;;;;;;106857;1303;22526;-34
2022/10/03 05:01:41;;;;;;;4.20;1.70;;;;;;;;;;106725;1299;25193;-35
2022/10/03 05:04:17;;;;;;;4.00;1.70;;;;;;;;;;106829;1299;24143;-34
2022/10/03 05:06:52;;;;;;;4.50;1.60;;;;;;;;;;106774;1298;22604;-34
2022/10/03 05:09:24;;;;;;;3.60;1.80;;;;;;;;;;106785;1303;23883;-33
2022/10/03 05:11:57;;;;;;;4.10;1.60;;;;;;;;;;106725;1303;22554;-34
2022/10/03 05:14:33;;;;;;;4.30;1.60;;;;;;;;;;106760;1303;22548;-34
2022/10/03 05:17:08;;;;;;;3.30;1.50;;;;;;;;;;106741;1298;22555;-34
2022/10/03 05:19:48;;;;;;;3.60;1.30;;;;;;;;;;106778;1303;22548;-35
2022/10/03 05:22:23;;;;;;;4.00;1.50;;;;;;;;;;106689;1298;22685;-33
2022/10/03 05:24:56;;;;;;;3.60;1.40;;;;;;;;;;106659;1299;176664;-34
2022/10/03 05:27:28;;;;;;;5.70;1.60;;;;;;;;;;106828;1299;22549;-34
2022/10/03 05:30:03;;;;;;;2.90;1.30;;;;;;;;;;106789;1303;22678;-35
2022/10/03 05:32:34;;;;;;;3.10;1.50;;;;;;;;;;106749;1300;25536;-34
2022/10/03 05:35:19;;;;;;;3.10;1.30;;;;;;;;;;106802;1300;25248;-33
2022/10/03 05:37:59;;;;;;;3.80;1.60;;;;;;;;;;106783;1303;23640;-34
2022/10/03 05:40:30;;;;;;;2.80;1.20;;;;;;;;;;106800;1300;22556;-34
2022/10/03 05:43:04;;;;;;;4.30;1.70;;;;;;;;;;106746;1297;22587;-34
2022/10/03 05:45:42;;;;;;;2.40;1.30;;;;;;;;;;106757;1297;24365;-35
2022/10/03 05:48:15;;;;;;;3.00;1.40;;;;;;;;;;106796;1303;22548;-34
2022/10/03 05:51:16;;;;;;;3.20;1.30;;;;;;;;;;106752;1300;24867;-33
2022/10/03 05:53:56;;;;;;;3.80;1.60;;;;;;;;;;106809;1302;35407;-34
2022/10/03 05:56:35;;;;;;;3.40;1.40;;;;;;;;;;106925;1300;25430;-37
2022/10/03 05:59:22;;;;;;;4.30;1.60;;;;;;;;;;106929;1300;22576;-33
2022/10/03 06:02:01;;;;;;;4.50;1.50;;;;;;;;;;106698;1296;24514;-32
2022/10/03 06:04:52;;;;;;;3.60;1.40;;;;;;;;;;106798;1298;22653;-32
2022/10/03 06:07:23;;;;;;;3.00;1.40;;;;;;;;;;106826;1300;25193;-32
2022/10/03 06:10:04;;;;;;;4.60;1.50;;;;;;;;;;106779;1303;22556;-32
2022/10/03 06:12:39;;;;;;;3.50;1.60;;;;;;;;;;106796;1302;22536;-32
2022/10/03 06:15:30;;;;;;;4.40;1.50;;;;;;;;;;106849;1295;22728;-32
2022/10/03 06:18:01;;;;;;;3.30;1.30;;;;;;;;;;106851;1300;22653;-31
2022/10/03 06:21:03;;;;;;;4.40;1.70;;;;;;;;;;106940;1302;22738;-30
2022/10/03 06:23:46;;;;;;;4.40;1.50;;;;;;;;;;106798;1303;22575;-32
2022/10/03 06:26:36;;;;;;;3.70;1.60;;;;;;;;;;106819;1303;22553;-32
2022/10/03 06:29:22;;;;;;;3.90;1.60;;;;;;;;;;106767;1303;22543;-33
2022/10/03 06:32:08;;;;;;;3.40;1.30;;;;;;;;;;106801;1301;22590;-31
2022/10/03 06:34:55;;;;;;;2.60;1.40;;;;;;;;;;106438;1299;29138;-32
2022/10/03 06:37:51;;;;;;;3.00;1.20;;;;;;;;;;106785;1302;22566;-32
2022/10/03 06:40:40;;;;;;;3.90;1.50;;;;;;;;;;106706;1303;22562;-31
2022/10/03 06:43:27;;;;;;;4.10;1.50;;;;;;;;;;106860;1301;22571;-30
2022/10/03 06:46:14;;;;;;;4.10;1.40;;;;;;;;;;106794;1297;23844;-30
2022/10/03 06:48:57;;;;;;;4.40;1.50;;;;;;;;;;106751;1303;22566;-31
2022/10/03 06:51:43;;;;;;;4.00;1.30;;;;;;;;;;106766;1301;22580;-32
2022/10/03 06:54:43;;;;;;;3.50;1.40;;;;;;;;;;106862;1303;22537;-31
2022/10/03 06:57:20;;;;;;;4.20;1.40;;;;;;;;;;106005;1305;22574;-32
2022/10/03 07:00:09;;;;;;;3.90;1.20;;;;;;;;;;106048;1305;22571;-32
2022/10/03 07:03:04;;;;;;;4.10;1.30;;;;;;;;;;106348;1300;22556;-31
2022/10/03 07:05:48;;;;;;;3.50;1.30;;;;;;;;;;106726;1303;32659;-33
2022/10/03 07:08:28;;;;;;;3.30;1.10;;;;;;;;;;106741;1301;23874;-33
2022/10/03 07:11:05;;;;;;;3.40;1.20;;;;;;;;;;106804;1297;22627;-33
2022/10/03 07:13:41;;;;;;;3.30;1.30;;;;;;;;;;106747;1303;22564;-33
2022/10/03 07:16:25;;;;;;;3.30;1.10;;;;;;;;;;106828;1298;22564;-33
2022/10/03 07:19:20;;;;;;;3.60;1.30;;;;;;;;;;106799;1302;23434;-33
2022/10/03 07:22:07;;;;;;;3.30;1.20;;;;;;;;;;106847;1300;25898;-32
2022/10/03 07:25:02;;;;;;;3.20;1.30;;;;;;;;;;106844;1296;22551;-32
2022/10/03 07:27:41;;;;;;;3.60;1.20;;;;;;;;;;106808;1296;22656;-31
2022/10/03 07:30:13;;;;;;;3.70;1.10;;;;;;;;;;106812;1296;25413;-33
2022/10/03 07:32:58;;;;;;;2.90;1.40;;;;;;;;;;106602;1298;22560;-30
2022/10/03 07:39:00;;;;;;;4.00;1.20;;;;;;;;;;106841;1302;22659;-30
2022/10/03 07:41:43;;;;;;;3.00;1.20;;;;;;;;;;106846;1303;22711;-30
2022/10/03 07:44:20;;;;;;;3.50;1.10;;;;;;;;;;106729;1303;22649;-31
2022/10/03 07:47:05;;;;;;;2.70;1.00;;;;;;;;;;106723;1297;26353;-31
2022/10/03 07:49:51;;;;;;;3.00;1.30;;;;;;;;;;106747;1299;23880;-31
2022/10/03 07:52:38;;;;;;;2.80;1.10;;;;;;;;;;106776;1303;22795;-31
2022/10/03 07:55:19;;;;;;;4.00;1.20;;;;;;;;;;106729;1298;22896;-31
2022/10/03 07:58:02;;;;;;;3.60;1.20;;;;;;;;;;106742;1300;24930;-31
2022/10/03 08:00:38;;;;;;;2.60;1.20;;;;;;;;;;106721;1303;22563;-31
2022/10/03 08:03:24;;;;;;;3.30;1.20;;;;;;;;;;106756;1300;25184;-31
2022/10/03 08:06:11;;;;;;;3.00;1.10;;;;;;;;;;106803;1303;25393;-30
2022/10/03 08:08:56;;;;;;;3.20;1.10;;;;;;;;;;106850;1302;23850;-31
2022/10/03 08:11:41;;;;;;;3.00;1.10;;;;;;;;;;106486;1302;22541;-31
2022/10/03 08:14:19;;;;;;;2.30;1.00;;;;;;;;;;106903;1299;25600;-32
2022/10/03 08:17:02;;;;;;;3.50;1.20;;;;;;;;;;106722;1303;25345;-31
2022/10/03 08:19:41;;;;;;;2.80;1.00;;;;;;;;;;106651;1300;25181;-31
2022/10/03 08:22:12;;;;;;;2.80;1.20;;;;;;;;;;106798;1296;22754;-31
2022/10/03 08:25:05;;;;;;;3.20;1.20;;;;;;;;;;106810;1301;22555;-31
2022/10/03 08:27:38;;;;;;;2.50;1.00;;;;;;;;;;106624;1301;34734;-32
2022/10/03 08:30:17;;;;;;;3.00;1.10;;;;;;;;;;106980;1302;22556;-32
2022/10/03 08:32:57;;;;;;;2.30;0.90;;;;;;;;;;106802;1302;22570;-32
2022/10/03 08:35:39;;;;;;;3.10;1.30;;;;;;;;;;106884;1303;22566;-31
2022/10/03 08:38:26;;;;;;;2.20;0.90;;;;;;;;;;106370;1303;36261;-31
2022/10/03 08:41:07;;;;;;;2.20;1.10;;;;;;;;;;106783;1300;25442;-32
2022/10/03 08:43:49;;;;;;;3.50;1.10;;;;;;;;;;106794;1299;22686;-32
2022/10/03 08:46:29;;;;;;;2.20;1.00;;;;;;;;;;106792;1302;22528;-31
2022/10/03 08:49:13;;;;;;;2.90;1.00;;;;;;;;;;106833;1302;22559;-31
2022/10/03 08:52:01;;;;;;;3.10;1.00;;;;;;;;;;106883;1298;22536;-32
2022/10/03 08:54:47;;;;;;;2.90;1.00;;;;;;;;;;106957;1302;22569;-31
2022/10/03 08:57:22;;;;;;;2.40;0.90;;;;;;;;;;106697;1301;25300;-30
2022/10/03 09:00:07;;;;;;;3.00;1.10;;;;;;;;;;106765;1303;22562;-30
2022/10/03 09:02:53;;;;;;;3.20;1.20;;;;;;;;;;106809;1302;22545;-31
2022/10/03 09:05:43;;;;;;;2.80;1.20;;;;;;;;;;106790;1301;22572;-31
2022/10/03 09:08:37;;;;;;;2.50;1.10;;;;;;;;;;106758;1298;25254;-31
2022/10/03 09:11:29;;;;;;;2.90;0.90;;;;;;;;;;106797;1297;22551;-30
2022/10/03 09:14:14;;;;;;;3.60;1.20;;;;;;;;;;106790;1297;25383;-29
2022/10/03 09:16:48;;;;;;;2.60;1.00;;;;;;;;;;106748;1300;22559;-30
2022/10/03 09:19:15;;;;;;;;;;;;;;;;;;106929;1295;22516;-30
2022/10/03 09:22:05;;;;;;;3.00;1.00;;;;;;;;;;106880;1302;25332;-31
2022/10/03 09:24:51;;;;;;;2.20;1.00;;;;;;;;;;106833;1296;22578;-31
2022/10/03 09:27:25;;;;;;;2.70;1.00;;;;;;;;;;106876;1295;22559;-31
2022/10/03 09:30:04;;;;;;;3.30;1.10;;;;;;;;;;106707;1302;22556;-31
2022/10/03 09:32:48;;;;;;;3.20;1.20;;;;;;;;;;106741;1303;22556;-32
2022/10/03 09:35:31;;;;;;;2.40;1.10;;;;;;;;;;106790;1298;22566;-32
2022/10/03 09:38:23;;;;;;;2.50;1.00;;;;;;;;;;106720;1300;22596;-31
2022/10/03 09:41:06;;;;;;;2.40;1.00;;;;;;;;;;106594;1303;22565;-31
2022/10/03 09:43:33;;;;;;;;;;;;;;;;;;106810;1303;22542;-30
2022/10/03 09:46:16;;;;;;;3.20;1.20;;;;;;;;;;106715;1297;22538;-30
2022/10/03 09:48:59;;;;;;;2.60;1.20;;;;;;;;;;106658;1297;23552;-30
2022/10/03 09:51:37;;;;;;;2.20;1.20;;;;;;;;;;106802;1300;22641;-31
2022/10/03 09:54:38;;;;;;;3.10;1.20;;;;;;;;;;106728;1302;22558;-31
2022/10/03 09:57:21;;;;;;;3.30;1.20;;;;;;;;;;106094;1308;25337;-31
2022/10/03 10:00:09;;;;;;;2.60;1.10;;;;;;;;;;106272;1304;32091;-31
2022/10/03 10:03:02;;;;;;;3.00;1.20;;;;;;;;;;106487;1304;22651;-31
2022/10/03 10:05:47;;;;;;;2.20;1.00;;;;;;;;;;106794;1303;25389;-29
2022/10/03 10:08:44;;;;;;;2.60;1.10;;;;;;;;;;106328;1304;22586;-30
2022/10/03 10:11:21;;;;;;;2.70;1.10;;;;;;;;;;106796;1303;22645;-31
2022/10/03 10:14:09;;;;;;;2.00;1.00;;;;;;;;;;106794;1298;22661;-31
2022/10/03 10:16:55;;;;;;;3.40;1.20;;;;;;;;;;106808;1297;22588;-32
2022/10/03 10:19:29;;;;;;;3.10;1.30;;;;;;;;;;106644;1303;22575;-32
2022/10/03 10:22:06;;;;;;;2.60;1.20;;;;;;;;;;106889;1303;22588;-31
2022/10/03 10:24:58;;;;;;;3.70;1.40;;;;;;;;;;106782;1301;25249;-31
2022/10/03 10:27:50;;;;;;;2.90;1.00;;;;;;;;;;106704;1303;22579;-30
2022/10/03 10:30:29;;;;;;;2.70;1.30;;;;;;;;;;106073;1305;22510;-32
2022/10/03 10:33:15;;;;;;;3.10;1.30;;;;;;;;;;106751;1304;22543;-32
2022/10/03 10:36:05;;;;;;;2.90;1.10;;;;;;;;;;106748;1304;22551;-31
2022/10/03 10:38:53;;;;;;;2.70;1.10;;;;;;;;;;106703;1297;25339;-31
2022/10/03 10:41:48;;;;;;;3.20;1.20;;;;;;;;;;106801;1303;27038;-31
2022/10/03 10:47:02;;;;;;;3.20;1.30;;;;;;;;;;101686;1316;555813;-31
2022/10/03 10:49:45;;;;;;;3.10;1.20;;;;;;;;;;104219;1304;22507;-31
2022/10/03 10:52:29;;;;;;;2.80;1.10;;;;;;;;;;104124;1312;22509;-31
2022/10/03 10:55:22;;;;;;;3.40;1.40;;;;;;;;;;104065;1297;22552;-32
2022/10/03 10:58:08;;;;;;;2.80;1.20;;;;;;;;;;104192;1298;24658;-31
2022/10/03 11:00:49;;;;;;;2.20;1.00;;;;;;;;;;104316;1309;41472;-31
2022/10/03 11:03:49;;;;;;;2.50;1.00;;;;;;;;;;104552;1300;22483;-31
2022/10/03 11:06:35;;;;;;;2.80;1.10;;;;;;;;;;104425;1294;22593;-31
2022/10/03 11:09:19;;;;;;;2.00;0.80;;;;;;;;;;104215;1302;22655;-31
2022/10/03 11:12:05;;;;;;;1.90;0.90;;;;;;;;;;104227;1303;22543;-31
2022/10/03 11:14:45;;;;;;;1.90;0.70;;;;;;;;;;104312;1296;22526;-31
2022/10/03 11:17:27;;;;;;;2.50;1.00;;;;;;;;;;104180;1305;22501;-31
2022/10/03 11:20:13;;;;;;;2.90;1.00;;;;;;;;;;104446;1302;25468;-29
2022/10/03 11:23:01;;;;;;;2.10;0.80;;;;;;;;;;104581;1301;22538;-31
2022/10/03 11:25:49;;;;;;;2.10;0.90;;;;;;;;;;104427;1302;22500;-31
2022/10/03 11:28:46;;;;;;;2.30;0.90;;;;;;;;;;104223;1296;25287;-30
2022/10/03 11:31:40;;;;;;;2.90;0.90;;;;;;;;;;104283;1303;22486;-30
2022/10/03 11:34:32;;;;;;;2.40;1.00;;;;;;;;;;104230;1303;23348;-30
2022/10/03 11:37:18;;;;;;;2.50;1.10;;;;;;;;;;103681;1307;23942;-30
2022/10/03 11:39:51;;;;;;;2.90;0.80;;;;;;;;;;104178;1304;25757;-30
2022/10/03 11:42:31;;;;;;;3.30;1.00;;;;;;;;;;104232;1297;26480;-31
2022/10/03 11:45:02;;;;;;;3.00;1.00;;;;;;;;;;104166;1305;22608;-31
2022/10/03 11:47:38;;;;;;;2.80;1.00;;;;;;;;;;104271;1304;22527;-31
2022/10/03 11:50:30;;;;;;;1.80;0.70;;;;;;;;;;104538;1302;22612;-30
2022/10/03 11:53:10;;;;;;;2.50;0.90;;;;;;;;;;103895;1311;68096;-31
2022/10/03 11:55:42;;;;;;;2.00;0.70;;;;;;;;;;104469;1294;22484;-30
2022/10/03 11:58:19;;;;;;;2.50;0.90;;;;;;;;;;104568;1299;22481;-30
2022/10/03 12:00:54;;;;;;;2.70;0.90;;;;;;;;;;104548;1293;22544;-30
2022/10/03 12:03:28;;;;;;;2.70;1.00;;;;;;;;;;104499;1293;24680;-31
2022/10/03 12:08:56;;;;;;;2.10;0.90;;;;;;;;;;104598;1298;24475;-32
2022/10/03 12:11:27;;;;;;;2.20;0.80;;;;;;;;;;104679;1294;22486;-32
2022/10/03 12:14:13;;;;;;;2.40;0.90;;;;;;;;;;104667;1301;24505;-32
2022/10/03 12:16:52;;;;;;;2.40;0.80;;;;;;;;;;104612;1293;23847;-32
2022/10/03 12:19:29;;;;;;;2.70;0.90;;;;;;;;;;104491;1300;22509;-31
2022/10/03 12:22:02;;;;;;;2.60;1.10;;;;;;;;;;104540;1293;24527;-31
2022/10/03 12:24:32;;;;;;;2.20;0.90;;;;;;;;;;104375;1296;21721;-31
2022/10/03 12:27:06;;;;;;;2.60;0.90;;;;;;;;;;104564;1301;22808;-33
2022/10/03 12:29:38;;;;;;;2.60;0.90;;;;;;;;;;104644;1298;24638;-32
2022/10/03 12:32:21;;;;;;;2.40;0.90;;;;;;;;;;104641;1301;22501;-30
2022/10/03 12:34:53;;;;;;;2.70;0.90;;;;;;;;;;104645;1298;22557;-31
2022/10/03 12:37:31;;;;;;;1.60;0.70;;;;;;;;;;104734;1298;22554;-31
2022/10/03 12:40:04;;;;;;;3.40;0.90;;;;;;;;;;104576;1294;30055;-31
2022/10/03 12:42:36;;;;;;;2.70;1.00;;;;;;;;;;104657;1301;25391;-31
2022/10/03 12:45:09;;;;;;;2.40;0.90;;;;;;;;;;104614;1306;24607;-31
2022/10/03 12:47:36;;;;;;;;;;;;;;;;;;104675;1294;22473;-31
2022/10/03 12:50:11;;;;;;;2.70;1.20;;;;;;;;;;104680;1297;22500;-31
2022/10/03 12:52:45;;;;;;;3.10;1.50;;;;;;;;;;105209;1289;22601;-30
2022/10/03 12:55:23;;;;;;;2.70;1.20;;;;;;;;;;105232;1290;22483;-31
2022/10/03 12:57:54;;;;;;;2.50;0.90;;;;;;;;;;105238;1285;22593;-31
2022/10/03 13:00:27;;;;;;;2.70;1.00;;;;;;;;;;105032;1291;22508;-31
2022/10/03 13:03:13;;;;;;;2.60;1.00;;;;;;;;;;105127;1283;22481;-31
2022/10/03 13:05:55;;;;;;;2.90;0.90;;;;;;;;;;104994;1286;23185;-31
2022/10/03 13:08:33;;;;;;;2.60;1.00;;;;;;;;;;105033;1294;22479;-32
2022/10/03 13:11:08;;;;;;;2.60;0.90;;;;;;;;;;105226;1291;22524;-30
2022/10/03 13:13:43;;;;;;;2.10;0.90;;;;;;;;;;105251;1285;25432;-31
2022/10/03 13:16:22;;;;;;;3.20;1.00;;;;;;;;;;105215;1284;22472;-31
2022/10/03 13:18:53;;;;;;;2.40;0.90;;;;;;;;;;105141;1289;22509;-31
2022/10/03 13:21:27;;;;;;;3.00;1.00;;;;;;;;;;105089;1287;22499;-31
2022/10/03 13:23:59;;;;;;;2.80;0.90;;;;;;;;;;105129;1290;22489;-31
2022/10/03 13:26:37;;;;;;;3.00;0.90;;;;;;;;;;105086;1292;22503;-31
2022/10/03 13:29:12;;;;;;;2.70;1.00;;;;;;;;;;105093;1283;22495;-31
2022/10/03 13:31:49;;;;;;;2.90;1.00;;;;;;;;;;105255;1285;22472;-31
2022/10/03 13:34:19;;;;;;;3.40;0.80;;;;;;;;;;105201;1285;22530;-31
2022/10/03 13:36:53;;;;;;;2.10;0.90;;;;;;;;;;105199;1291;22515;-31
2022/10/03 13:39:25;;;;;;;1.60;0.80;;;;;;;;;;105134;1291;22630;-31
2022/10/03 13:41:54;;;;;;;;;;;;;;;;;;105110;1293;22664;-31
2022/10/03 13:44:27;;;;;;;2.90;1.00;;;;;;;;;;105112;1287;22512;-31
2022/10/03 13:47:02;;;;;;;2.20;0.80;;;;;;;;;;105114;1291;22487;-31
2022/10/03 13:49:34;;;;;;;4.10;1.00;;;;;;;;;;105076;1287;22464;-31
2022/10/03 13:52:09;;;;;;;3.10;1.10;;;;;;;;;;105225;1284;22682;-31
2022/10/03 13:54:48;;;;;;;3.20;0.80;;;;;;;;;;105234;1291;26436;-32
2022/10/03 13:57:21;;;;;;;2.50;0.90;;;;;;;;;;105270;1285;22633;-31
2022/10/03 13:59:56;;;;;;;1.50;0.70;;;;;;;;;;105138;1291;22530;-31
2022/10/03 14:02:36;;;;;;;2.80;0.90;;;;;;;;;;105090;1293;22488;-31
2022/10/03 14:05:22;;;;;;;2.20;0.80;;;;;;;;;;105067;1291;23060;-31
2022/10/03 14:07:55;;;;;;;2.90;1.10;;;;;;;;;;105074;1283;22549;-31
2022/10/03 14:10:51;;;;;;;4.80;1.00;;;;;;;;;;105101;1283;22483;-31
2022/10/03 14:13:23;;;;;;;2.30;0.90;;;;;;;;;;105200;1292;22473;-31
2022/10/03 14:15:57;;;;;;;2.00;0.90;;;;;;;;;;105224;1291;22488;-31
2022/10/03 14:18:32;;;;;;;2.40;0.80;;;;;;;;;;105234;1288;22531;-33
2022/10/03 14:21:17;;;;;;;3.90;0.90;;;;;;;;;;105117;1291;25325;-33
2022/10/03 14:23:49;;;;;;;2.90;0.80;;;;;;;;;;105112;1291;22497;-32
2022/10/03 14:26:21;;;;;;;2.20;0.80;;;;;;;;;;105037;1291;22707;-33
2022/10/03 14:28:54;;;;;;;4.80;1.00;;;;;;;;;;105115;1287;24341;-33
2022/10/03 14:31:23;;;;;;;;;;;;;;;;;;105176;1287;22539;-33
2022/10/03 14:33:56;;;;;;;3.00;0.60;;;;;;;;;;105188;1290;22490;-35
2022/10/03 14:36:33;;;;;;;2.20;0.80;;;;;;;;;;105272;1291;22467;-35
2022/10/03 14:39:09;;;;;;;2.70;0.90;;;;;;;;;;105264;1290;22471;-35
2022/10/03 14:42:02;;;;;;;2.90;0.80;;;;;;;;;;105094;1284;22521;-35
2022/10/03 14:44:37;;;;;;;1.70;0.80;;;;;;;;;;104981;1279;22491;-36
2022/10/03 14:47:09;;;;;;;2.40;0.90;;;;;;;;;;105070;1293;22644;-35
2022/10/03 14:49:40;;;;;;;3.40;0.90;;;;;;;;;;105066;1291;25993;-34
2022/10/03 14:52:17;;;;;;;2.60;0.90;;;;;;;;;;105100;1292;22478;-34
2022/10/03 14:54:50;;;;;;;2.50;0.90;;;;;;;;;;105157;1292;22562;-32
2022/10/03 14:57:34;;;;;;;4.10;1.00;;;;;;;;;;105265;1284;22466;-32
2022/10/03 15:00:04;;;;;;;2.60;0.80;;;;;;;;;;105205;1284;22477;-36
2022/10/03 15:02:35;;;;;;;2.40;0.80;;;;;;;;;;104981;1286;22416;-34
2022/10/03 15:05:08;;;;;;;2.20;0.70;;;;;;;;;;105022;1289;22463;-32
2022/10/03 15:07:38;;;;;;;3.30;1.00;;;;;;;;;;105056;1279;22897;-33
2022/10/03 15:10:09;;;;;;;3.00;0.80;;;;;;;;;;104994;1293;23726;-34
2022/10/03 15:12:42;;;;;;;2.90;0.90;;;;;;;;;;105156;1286;23822;-34
2022/10/03 15:15:14;;;;;;;5.10;1.00;;;;;;;;;;105156;1284;24625;-35
2022/10/03 15:17:49;;;;;;;2.60;0.80;;;;;;;;;;105187;1284;22491;-35
2022/10/03 15:20:25;;;;;;;3.70;1.00;;;;;;;;;;105190;1291;25153;-35
2022/10/03 15:22:56;;;;;;;2.00;0.60;;;;;;;;;;105060;1286;22488;-35
2022/10/03 15:25:27;;;;;;;2.20;0.70;;;;;;;;;;105089;1286;22479;-36
2022/10/03 15:27:58;;;;;;;1.90;0.70;;;;;;;;;;105098;1286;22481;-35
2022/10/03 15:30:28;;;;;;;1.50;0.70;;;;;;;;;;105124;1284;26670;-35
2022/10/03 15:33:06;;;;;;;2.30;0.80;;;;;;;;;;105132;1286;22566;-35
2022/10/03 15:35:38;;;;;;;2.40;0.80;;;;;;;;;;105216;1284;25369;-34
2022/10/03 15:38:10;;;;;;;2.20;0.80;;;;;;;;;;105261;1290;24537;-35
2022/10/03 15:40:39;;;;;;;4.00;0.70;;;;;;;;;;105260;1284;22582;-34
2022/10/03 15:43:24;;;;;;;2.50;0.80;;;;;;;;;;105107;1283;24431;-33
2022/10/03 15:45:53;;;;;;;3.20;1.00;;;;;;;;;;104996;1292;25393;-34
2022/10/03 15:48:24;;;;;;;2.60;0.70;;;;;;;;;;105113;1290;22479;-33
2022/10/03 15:50:57;;;;;;;2.10;0.80;;;;;;;;;;105065;1291;22504;-33
2022/10/03 15:53:28;;;;;;;2.10;0.70;;;;;;;;;;105161;1284;24029;-35
2022/10/03 15:56:00;;;;;;;2.70;0.70;;;;;;;;;;105245;1291;22484;-34
2022/10/03 15:58:32;;;;;;;2.20;0.80;;;;;;;;;;105136;1278;24414;-34